createdAt,value
2023-03-16T00:00:03.870Z,48.18
2023-03-16T00:01:03.867Z,45.28
2023-03-16T00:02:03.954Z,46.73
2023-03-16T00:03:03.889Z,45.76
2023-03-16T00:04:03.873Z,45.76
2023-03-16T00:05:03.828Z,46.08
2023-03-16T00:06:03.813Z,45.44
2023-03-16T00:07:03.819Z,46.89
2023-03-16T00:08:03.797Z,45.60
2023-03-16T00:09:03.954Z,46.89
2023-03-16T00:10:03.780Z,44.96
2023-03-16T00:11:03.790Z,45.60
2023-03-16T00:12:03.762Z,46.89
2023-03-16T00:13:03.753Z,47.05
2023-03-16T00:14:03.741Z,47.05
2023-03-16T00:15:03.730Z,45.12
2023-03-16T00:16:03.768Z,46.57
2023-03-16T00:17:03.720Z,46.73
2023-03-16T00:18:03.699Z,47.53
2023-03-16T00:19:03.713Z,45.92
2023-03-16T00:20:03.680Z,46.57
2023-03-16T00:21:03.668Z,46.73
2023-03-16T00:22:03.656Z,48.18
2023-03-16T00:23:03.651Z,46.41
2023-03-16T00:24:03.645Z,45.28
2023-03-16T00:25:03.635Z,47.05
2023-03-16T00:26:03.616Z,47.70
2023-03-16T00:27:03.612Z,47.53
2023-03-16T00:28:03.599Z,45.60
2023-03-16T00:29:03.600Z,47.05
2023-03-16T00:30:03.612Z,46.25
2023-03-16T00:31:03.568Z,46.73
2023-03-16T00:32:03.656Z,47.53
2023-03-16T00:33:03.594Z,48.02
2023-03-16T00:34:03.530Z,46.73
2023-03-16T00:35:03.536Z,46.25
2023-03-16T00:36:03.532Z,45.60
2023-03-16T00:37:03.507Z,46.25
2023-03-16T00:38:03.490Z,46.25
2023-03-16T00:39:03.484Z,46.41
2023-03-16T00:40:03.477Z,46.89
2023-03-16T00:41:03.469Z,46.89
2023-03-16T00:42:03.450Z,46.73
2023-03-16T00:43:03.445Z,46.25
2023-03-16T00:44:03.429Z,46.73
2023-03-16T00:45:03.423Z,46.25
2023-03-16T00:46:03.475Z,46.73
2023-03-16T00:47:03.398Z,46.73
2023-03-16T00:48:03.396Z,46.89
2023-03-16T00:49:03.386Z,46.73
2023-03-16T00:50:03.787Z,46.08
2023-03-16T00:51:03.359Z,46.08
2023-03-16T00:52:03.353Z,47.05
2023-03-16T00:53:03.339Z,46.89
2023-03-16T00:54:03.336Z,46.25
2023-03-16T00:55:03.340Z,46.89
2023-03-16T00:56:03.317Z,46.73
2023-03-16T00:57:03.302Z,46.57
2023-03-16T00:58:03.292Z,45.60
2023-03-16T00:59:03.294Z,46.89
2023-03-16T01:00:03.284Z,47.21
2023-03-16T01:01:03.299Z,46.57
2023-03-16T01:02:03.254Z,47.21
2023-03-16T01:03:03.345Z,47.37
2023-03-16T01:04:03.238Z,50.11
2023-03-16T01:05:03.233Z,47.70
2023-03-16T01:06:03.222Z,46.25
2023-03-16T01:07:03.211Z,47.53
2023-03-16T01:08:03.196Z,47.86
2023-03-16T01:09:03.191Z,47.21
2023-03-16T01:10:03.196Z,46.57
2023-03-16T01:11:03.165Z,47.86
2023-03-16T01:12:03.149Z,45.92
2023-03-16T01:13:03.156Z,46.41
2023-03-16T01:14:03.131Z,46.73
2023-03-16T01:15:03.480Z,47.21
2023-03-16T01:16:03.108Z,47.05
2023-03-16T01:17:03.253Z,47.53
2023-03-16T01:18:03.088Z,45.28
2023-03-16T01:19:03.085Z,46.73
2023-03-16T01:20:03.088Z,47.70
2023-03-16T01:21:03.069Z,46.73
2023-03-16T01:22:03.054Z,46.08
2023-03-16T01:23:03.044Z,46.89
2023-03-16T01:24:03.033Z,46.41
2023-03-16T01:25:03.383Z,47.37
2023-03-16T01:26:03.014Z,46.57
2023-03-16T01:27:03.012Z,46.73
2023-03-16T01:28:02.992Z,46.41
2023-03-16T01:29:02.987Z,46.25
2023-03-16T01:30:03.322Z,45.60
2023-03-16T01:31:03.027Z,46.89
2023-03-16T01:32:02.954Z,47.21
2023-03-16T01:33:03.025Z,47.53
2023-03-16T01:34:02.933Z,46.89
2023-03-16T01:35:03.243Z,46.57
2023-03-16T01:36:02.943Z,45.28
2023-03-16T01:37:02.906Z,48.18
2023-03-16T01:38:02.891Z,46.25
2023-03-16T01:39:02.888Z,46.73
2023-03-16T01:40:02.885Z,47.86
2023-03-16T01:41:02.867Z,52.37
2023-03-16T01:42:02.855Z,47.37
2023-03-16T01:43:02.852Z,47.53
2023-03-16T01:44:02.835Z,47.37
2023-03-16T01:45:03.016Z,45.76
2023-03-16T01:46:02.891Z,46.73
2023-03-16T01:47:02.815Z,47.37
2023-03-16T01:48:02.798Z,46.89
2023-03-16T01:49:02.786Z,46.89
2023-03-16T01:50:02.793Z,47.05
2023-03-16T01:51:05.138Z,45.92
2023-03-16T01:52:02.752Z,50.92
2023-03-16T01:53:02.751Z,47.53
2023-03-16T01:54:02.737Z,46.73
2023-03-16T01:55:03.057Z,47.70
2023-03-16T01:56:02.715Z,46.73
2023-03-16T01:57:02.718Z,47.53
2023-03-16T01:58:02.697Z,47.37
2023-03-16T01:59:02.688Z,47.21
2023-03-16T02:00:03.045Z,47.86
2023-03-16T02:01:02.689Z,47.86
2023-03-16T02:02:02.684Z,46.73
2023-03-16T02:03:02.670Z,47.21
2023-03-16T02:04:02.705Z,48.02
2023-03-16T02:05:02.931Z,47.05
2023-03-16T02:06:02.615Z,47.05
2023-03-16T02:07:02.612Z,47.70
2023-03-16T02:08:02.600Z,47.53
2023-03-16T02:09:02.595Z,47.37
2023-03-16T02:10:02.676Z,47.70
2023-03-16T02:11:02.571Z,47.37
2023-03-16T02:12:02.554Z,47.53
2023-03-16T02:13:02.548Z,47.70
2023-03-16T02:14:02.537Z,47.53
2023-03-16T02:15:02.892Z,46.89
2023-03-16T02:16:02.558Z,48.18
2023-03-16T02:17:02.517Z,46.08
2023-03-16T02:18:02.498Z,48.02
2023-03-16T02:19:02.501Z,47.21
2023-03-16T02:20:02.518Z,47.53
2023-03-16T02:21:02.478Z,48.50
2023-03-16T02:22:02.457Z,47.37
2023-03-16T02:23:02.455Z,47.21
2023-03-16T02:24:02.444Z,47.37
2023-03-16T02:25:02.605Z,47.70
2023-03-16T02:26:02.417Z,47.21
2023-03-16T02:27:02.414Z,48.50
2023-03-16T02:28:02.487Z,48.18
2023-03-16T02:29:02.409Z,46.73
2023-03-16T02:30:02.851Z,47.05
2023-03-16T02:31:02.427Z,47.37
2023-03-16T02:32:02.361Z,47.21
2023-03-16T02:33:02.423Z,47.21
2023-03-16T02:34:02.344Z,47.86
2023-03-16T02:35:02.632Z,46.73
2023-03-16T02:36:02.350Z,47.05
2023-03-16T02:37:02.318Z,47.86
2023-03-16T02:38:02.301Z,47.53
2023-03-16T02:39:02.297Z,47.70
2023-03-16T02:40:02.297Z,47.86
2023-03-16T02:41:02.283Z,48.18
2023-03-16T02:42:02.262Z,47.21
2023-03-16T02:43:02.257Z,48.18
2023-03-16T02:44:02.246Z,47.70
2023-03-16T02:45:02.374Z,47.53
2023-03-16T02:46:02.277Z,47.70
2023-03-16T02:47:02.216Z,47.53
2023-03-16T02:48:02.205Z,47.21
2023-03-16T02:49:02.198Z,47.05
2023-03-16T02:50:02.833Z,47.70
2023-03-16T02:51:02.188Z,46.25
2023-03-16T02:52:02.169Z,45.28
2023-03-16T02:53:02.158Z,47.53
2023-03-16T02:54:02.143Z,47.37
2023-03-16T02:55:02.481Z,46.73
2023-03-16T02:56:02.131Z,46.89
2023-03-16T02:57:02.125Z,47.05
2023-03-16T02:58:02.106Z,47.05
2023-03-16T02:59:02.108Z,47.86
2023-03-16T03:00:02.448Z,47.21
2023-03-16T03:01:02.078Z,47.53
2023-03-16T03:02:02.066Z,47.21
2023-03-16T03:03:02.072Z,47.86
2023-03-16T03:04:02.056Z,47.53
2023-03-16T03:05:02.385Z,47.21
2023-03-16T03:06:02.032Z,47.21
2023-03-16T03:07:02.032Z,47.21
2023-03-16T03:08:02.001Z,47.21
2023-03-16T03:09:02.028Z,46.89
2023-03-16T03:10:01.982Z,46.73
2023-03-16T03:11:01.987Z,46.41
2023-03-16T03:12:01.977Z,48.82
2023-03-16T03:13:01.969Z,47.70
2023-03-16T03:14:01.946Z,45.92
2023-03-16T03:15:01.941Z,48.02
2023-03-16T03:16:02.054Z,46.25
2023-03-16T03:17:01.918Z,48.50
2023-03-16T03:18:01.904Z,47.37
2023-03-16T03:19:01.906Z,48.34
2023-03-16T03:20:01.929Z,47.37
2023-03-16T03:21:01.891Z,47.05
2023-03-16T03:22:01.867Z,47.21
2023-03-16T03:23:01.895Z,47.37
2023-03-16T03:24:01.854Z,46.57
2023-03-16T03:25:01.842Z,46.08
2023-03-16T03:26:01.851Z,47.21
2023-03-16T03:27:01.821Z,47.37
2023-03-16T03:28:01.832Z,48.50
2023-03-16T03:29:01.813Z,47.86
2023-03-16T03:30:01.790Z,48.18
2023-03-16T03:31:01.804Z,49.63
2023-03-16T03:32:01.769Z,48.02
2023-03-16T03:33:01.841Z,47.37
2023-03-16T03:34:01.749Z,47.53
2023-03-16T03:35:01.761Z,46.73
2023-03-16T03:36:01.763Z,48.02
2023-03-16T03:37:01.725Z,47.53
2023-03-16T03:38:01.718Z,48.18
2023-03-16T03:39:01.720Z,46.41
2023-03-16T03:40:01.695Z,47.86
2023-03-16T03:41:01.957Z,47.53
2023-03-16T03:42:01.741Z,47.86
2023-03-16T03:43:01.678Z,47.70
2023-03-16T03:44:01.693Z,48.98
2023-03-16T03:45:01.690Z,48.34
2023-03-16T03:46:02.170Z,47.37
2023-03-16T03:47:01.736Z,48.34
2023-03-16T03:48:01.687Z,47.53
2023-03-16T03:49:01.679Z,47.53
2023-03-16T03:50:01.607Z,47.21
2023-03-16T03:51:01.774Z,48.50
2023-03-16T03:52:01.575Z,48.82
2023-03-16T03:53:01.573Z,47.05
2023-03-16T03:54:01.567Z,48.34
2023-03-16T03:55:01.551Z,48.02
2023-03-16T03:56:01.566Z,52.21
2023-03-16T03:57:01.531Z,48.34
2023-03-16T03:58:01.524Z,47.86
2023-03-16T03:59:01.511Z,47.86
2023-03-16T04:00:01.850Z,48.34
2023-03-16T04:01:01.800Z,47.70
2023-03-16T04:02:01.639Z,48.34
2023-03-16T04:03:01.654Z,48.18
2023-03-16T04:04:01.456Z,48.02
2023-03-16T04:05:01.454Z,47.53
2023-03-16T04:06:01.765Z,48.34
2023-03-16T04:07:01.432Z,47.21
2023-03-16T04:08:01.420Z,48.34
2023-03-16T04:09:01.409Z,47.53
2023-03-16T04:10:01.411Z,47.86
2023-03-16T04:11:01.628Z,48.50
2023-03-16T04:12:01.375Z,48.34
2023-03-16T04:13:01.374Z,47.05
2023-03-16T04:14:01.355Z,46.89
2023-03-16T04:15:01.353Z,48.34
2023-03-16T04:16:01.662Z,47.53
2023-03-16T04:17:01.427Z,47.70
2023-03-16T04:18:01.318Z,47.86
2023-03-16T04:19:01.312Z,47.86
2023-03-16T04:20:01.299Z,48.02
2023-03-16T04:21:01.316Z,48.82
2023-03-16T04:22:01.283Z,48.18
2023-03-16T04:23:01.278Z,47.86
2023-03-16T04:24:01.258Z,48.82
2023-03-16T04:25:01.256Z,47.53
2023-03-16T04:26:01.573Z,47.86
2023-03-16T04:27:01.235Z,48.34
2023-03-16T04:28:01.219Z,48.02
2023-03-16T04:29:01.215Z,48.66
2023-03-16T04:30:01.204Z,47.21
2023-03-16T04:31:01.244Z,49.79
2023-03-16T04:32:01.182Z,47.86
2023-03-16T04:33:01.268Z,48.02
2023-03-16T04:34:01.179Z,48.02
2023-03-16T04:35:01.160Z,47.37
2023-03-16T04:36:01.354Z,48.02
2023-03-16T04:37:01.141Z,48.50
2023-03-16T04:38:01.128Z,48.66
2023-03-16T04:39:01.117Z,48.50
2023-03-16T04:40:01.103Z,48.66
2023-03-16T04:41:01.651Z,48.98
2023-03-16T04:42:01.080Z,47.86
2023-03-16T04:43:01.081Z,47.86
2023-03-16T04:44:01.072Z,49.79
2023-03-16T04:45:01.060Z,48.50
2023-03-16T04:46:01.260Z,53.98
2023-03-16T04:47:01.046Z,53.82
2023-03-16T04:48:01.031Z,48.98
2023-03-16T04:49:01.031Z,54.30
2023-03-16T04:50:01.007Z,49.79
2023-03-16T04:51:01.189Z,48.02
2023-03-16T04:52:00.989Z,49.31
2023-03-16T04:53:00.983Z,47.86
2023-03-16T04:54:00.971Z,49.15
2023-03-16T04:55:00.960Z,47.86
2023-03-16T04:56:00.928Z,47.21
2023-03-16T04:57:00.945Z,52.05
2023-03-16T04:58:00.928Z,48.50
2023-03-16T04:59:00.875Z,49.63
2023-03-16T05:00:00.930Z,48.50
2023-03-16T05:01:01.185Z,48.18
2023-03-16T05:02:00.850Z,47.70
2023-03-16T05:03:00.826Z,49.63
2023-03-16T05:04:00.883Z,46.89
2023-03-16T05:05:00.861Z,48.18
2023-03-16T05:06:01.303Z,48.98
2023-03-16T05:07:00.789Z,48.98
2023-03-16T05:08:00.777Z,47.86
2023-03-16T05:09:00.773Z,48.82
2023-03-16T05:10:00.763Z,49.47
2023-03-16T05:11:01.040Z,48.50
2023-03-16T05:12:00.758Z,48.34
2023-03-16T05:13:00.733Z,48.02
2023-03-16T05:14:00.731Z,48.98
2023-03-16T05:15:00.708Z,49.47
2023-03-16T05:16:00.831Z,47.70
2023-03-16T05:17:00.693Z,47.86
2023-03-16T05:18:00.683Z,49.31
2023-03-16T05:19:00.680Z,48.50
2023-03-16T05:20:00.704Z,48.98
2023-03-16T05:21:01.070Z,48.98
2023-03-16T05:22:00.643Z,48.50
2023-03-16T05:23:00.626Z,67.03
2023-03-16T05:24:00.636Z,48.50
2023-03-16T05:25:00.616Z,48.34
2023-03-16T05:26:00.960Z,49.47
2023-03-16T05:27:00.588Z,49.63
2023-03-16T05:28:00.591Z,49.95
2023-03-16T05:29:00.584Z,54.14
2023-03-16T05:30:00.566Z,51.56
2023-03-16T05:31:00.637Z,48.34
2023-03-16T05:32:00.556Z,51.08
2023-03-16T05:33:00.580Z,48.82
2023-03-16T05:34:00.524Z,49.31
2023-03-16T05:35:00.516Z,48.50
2023-03-16T05:36:01.079Z,61.71
2023-03-16T05:37:00.512Z,57.85
2023-03-16T05:38:00.490Z,49.63
2023-03-16T05:39:00.480Z,49.15
2023-03-16T05:40:00.473Z,53.01
2023-03-16T05:41:00.747Z,49.47
2023-03-16T05:42:00.446Z,49.95
2023-03-16T05:43:00.476Z,58.81
2023-03-16T05:44:00.431Z,63.81
2023-03-16T05:45:00.418Z,48.02
2023-03-16T05:46:00.744Z,49.31
2023-03-16T05:47:00.507Z,56.40
2023-03-16T05:48:00.402Z,64.13
2023-03-16T05:49:00.377Z,50.11
2023-03-16T05:50:00.375Z,47.53
2023-03-16T05:51:00.597Z,54.62
2023-03-16T05:52:00.353Z,48.82
2023-03-16T05:53:00.339Z,55.11
2023-03-16T05:54:00.335Z,60.42
2023-03-16T05:55:00.325Z,48.50
2023-03-16T05:56:00.681Z,48.50
2023-03-16T05:57:00.300Z,49.47
2023-03-16T05:58:00.305Z,53.33
2023-03-16T05:59:00.280Z,50.27
2023-03-16T06:00:00.274Z,51.40
2023-03-16T06:01:00.585Z,48.66
2023-03-16T06:02:00.261Z,54.62
2023-03-16T06:03:00.356Z,48.34
2023-03-16T06:04:00.393Z,47.05
2023-03-16T06:05:00.226Z,48.66
2023-03-16T06:06:00.230Z,48.98
2023-03-16T06:07:00.206Z,47.37
2023-03-16T06:08:00.206Z,46.73
2023-03-16T06:09:00.187Z,46.25
2023-03-16T06:10:00.205Z,46.73
2023-03-16T06:11:00.429Z,47.70
2023-03-16T06:12:00.199Z,44.31
2023-03-16T06:13:00.136Z,47.05
2023-03-16T06:14:00.139Z,59.46
2023-03-16T06:15:00.142Z,56.72
2023-03-16T06:16:00.300Z,51.72
2023-03-16T06:17:00.122Z,43.18
2023-03-16T06:18:00.109Z,50.27
2023-03-16T06:19:00.235Z,42.70
2023-03-16T06:20:00.116Z,42.86
2023-03-16T06:21:00.123Z,43.18
2023-03-16T06:22:00.168Z,42.38
2023-03-16T06:23:00.044Z,43.99
2023-03-16T06:24:00.048Z,44.47
2023-03-16T06:25:00.027Z,55.59
2023-03-16T06:26:00.039Z,45.76
2023-03-16T06:27:00.008Z,42.70
2023-03-16T06:28:00.003Z,43.18
2023-03-16T06:28:59.988Z,43.34
2023-03-16T06:29:59.987Z,52.85
2023-03-16T06:31:00.327Z,54.30
2023-03-16T06:31:59.966Z,55.27
2023-03-16T06:33:00.047Z,42.54
2023-03-16T06:33:59.947Z,54.62
2023-03-16T06:34:59.931Z,36.58
2023-03-16T06:36:00.003Z,39.64
2023-03-16T06:36:59.906Z,35.61
2023-03-16T06:37:59.901Z,39.16
2023-03-16T06:38:59.885Z,39.48
2023-03-16T06:39:59.884Z,35.77
2023-03-16T06:40:59.866Z,39.64
2023-03-16T06:41:59.878Z,57.69
2023-03-16T06:42:59.868Z,34.80
2023-03-16T06:43:59.859Z,37.22
2023-03-16T06:44:59.827Z,34.97
2023-03-16T06:45:59.886Z,36.09
2023-03-16T06:46:59.814Z,35.45
2023-03-16T06:47:59.798Z,34.97
2023-03-16T06:48:59.785Z,36.09
2023-03-16T06:49:59.778Z,44.79
2023-03-16T06:50:59.791Z,35.45
2023-03-16T06:51:59.767Z,39.32
2023-03-16T06:52:59.744Z,36.25
2023-03-16T06:53:59.743Z,36.09
2023-03-16T06:54:59.726Z,35.13
2023-03-16T06:55:59.725Z,51.72
2023-03-16T06:56:59.710Z,37.06
2023-03-16T06:57:59.692Z,34.64
2023-03-16T06:58:59.688Z,35.45
2023-03-16T06:59:59.674Z,36.09
2023-03-16T07:00:59.734Z,35.93
2023-03-16T07:01:59.655Z,43.67
2023-03-16T07:03:00.569Z,36.42
2023-03-16T07:03:59.710Z,61.87
2023-03-16T07:04:59.616Z,53.82
2023-03-16T07:05:59.609Z,49.47
2023-03-16T07:06:59.861Z,38.99
2023-03-16T07:07:59.588Z,38.19
2023-03-16T07:08:59.590Z,38.99
2023-03-16T07:09:59.571Z,53.33
2023-03-16T07:10:59.565Z,38.19
2023-03-16T07:12:00.034Z,39.96
2023-03-16T07:12:59.546Z,39.32
2023-03-16T07:13:59.531Z,38.99
2023-03-16T07:14:59.516Z,42.22
2023-03-16T07:15:59.508Z,39.48
2023-03-16T07:16:59.832Z,39.16
2023-03-16T07:17:59.488Z,38.99
2023-03-16T07:18:59.470Z,46.73
2023-03-16T07:19:59.463Z,39.16
2023-03-16T07:20:59.452Z,40.44
2023-03-16T07:21:59.458Z,66.06
2023-03-16T07:22:59.425Z,56.88
2023-03-16T07:23:59.423Z,56.40
2023-03-16T07:24:59.405Z,39.32
2023-03-16T07:25:59.405Z,39.16
2023-03-16T07:26:59.654Z,43.51
2023-03-16T07:27:59.381Z,39.48
2023-03-16T07:28:59.368Z,39.96
2023-03-16T07:29:59.360Z,45.12
2023-03-16T07:31:03.890Z,40.77
2023-03-16T07:31:59.408Z,38.51
2023-03-16T07:32:59.367Z,38.99
2023-03-16T07:33:59.318Z,38.19
2023-03-16T07:34:59.403Z,37.71
2023-03-16T07:35:59.382Z,53.17
2023-03-16T07:36:59.285Z,56.07
2023-03-16T07:37:59.276Z,38.03
2023-03-16T07:38:59.266Z,41.41
2023-03-16T07:39:59.261Z,42.70
2023-03-16T07:40:59.238Z,37.54
2023-03-16T07:41:59.300Z,52.53
2023-03-16T07:42:59.221Z,46.57
2023-03-16T07:43:59.222Z,38.03
2023-03-16T07:44:59.202Z,37.22
2023-03-16T07:45:59.241Z,55.59
2023-03-16T07:46:59.190Z,37.54
2023-03-16T07:47:59.174Z,37.38
2023-03-16T07:48:59.170Z,37.38
2023-03-16T07:49:59.156Z,38.51
2023-03-16T07:50:59.175Z,36.90
2023-03-16T07:51:59.139Z,37.71
2023-03-16T07:52:59.117Z,37.54
2023-03-16T07:53:59.116Z,37.38
2023-03-16T07:54:59.097Z,38.99
2023-03-16T07:55:59.095Z,37.71
2023-03-16T07:56:59.091Z,37.71
2023-03-16T07:57:59.077Z,37.38
2023-03-16T07:58:59.054Z,49.47
2023-03-16T07:59:59.054Z,54.62
2023-03-16T08:00:59.044Z,46.57
2023-03-16T08:01:59.101Z,37.71
2023-03-16T08:02:59.025Z,37.38
2023-03-16T08:03:59.144Z,39.32
2023-03-16T08:04:59.004Z,40.77
2023-03-16T08:05:58.985Z,43.02
2023-03-16T08:06:58.986Z,36.74
2023-03-16T08:07:58.972Z,38.03
2023-03-16T08:08:58.956Z,39.64
2023-03-16T08:09:58.952Z,53.17
2023-03-16T08:10:58.965Z,35.93
2023-03-16T08:11:58.928Z,40.61
2023-03-16T08:12:59.036Z,56.07
2023-03-16T08:13:58.911Z,38.19
2023-03-16T08:14:58.901Z,49.95
2023-03-16T08:15:59.021Z,35.77
2023-03-16T08:16:59.189Z,46.25
2023-03-16T08:17:58.871Z,48.50
2023-03-16T08:18:58.855Z,46.25
2023-03-16T08:19:58.853Z,42.70
2023-03-16T08:20:58.838Z,37.71
2023-03-16T08:22:01.766Z,50.11
2023-03-16T08:22:58.829Z,37.54
2023-03-16T08:23:58.805Z,36.42
2023-03-16T08:24:58.800Z,36.42
2023-03-16T08:25:58.782Z,41.09
2023-03-16T08:26:59.021Z,37.22
2023-03-16T08:27:58.769Z,40.77
2023-03-16T08:28:58.825Z,35.93
2023-03-16T08:29:58.741Z,44.15
2023-03-16T08:30:58.907Z,36.74
2023-03-16T08:31:59.074Z,36.90
2023-03-16T08:32:58.775Z,42.86
2023-03-16T08:33:58.701Z,35.61
2023-03-16T08:34:58.725Z,46.57
2023-03-16T08:35:58.743Z,44.47
2023-03-16T08:36:58.695Z,49.47
2023-03-16T08:37:58.665Z,35.61
2023-03-16T08:39:06.451Z,35.29
2023-03-16T08:39:58.650Z,34.97
2023-03-16T08:40:58.684Z,35.45
2023-03-16T08:41:58.636Z,35.13
2023-03-16T08:42:58.608Z,35.13
2023-03-16T08:43:58.604Z,35.61
2023-03-16T08:44:58.601Z,35.93
2023-03-16T08:45:58.793Z,36.25
2023-03-16T08:46:58.918Z,39.32
2023-03-16T08:47:58.562Z,45.76
2023-03-16T08:48:58.555Z,36.25
2023-03-16T08:49:58.541Z,39.96
2023-03-16T08:50:58.525Z,41.41
2023-03-16T08:51:58.826Z,37.22
2023-03-16T08:52:58.501Z,35.77
2023-03-16T08:53:58.504Z,35.93
2023-03-16T08:55:03.573Z,35.45
2023-03-16T08:55:58.488Z,35.77
2023-03-16T08:56:58.800Z,38.67
2023-03-16T08:57:58.453Z,35.93
2023-03-16T08:58:58.444Z,35.61
2023-03-16T08:59:58.428Z,36.25
2023-03-16T09:00:58.421Z,35.77
2023-03-16T09:01:58.833Z,35.93
2023-03-16T09:02:58.397Z,37.38
2023-03-16T09:03:58.475Z,41.57
2023-03-16T09:04:58.387Z,39.48
2023-03-16T09:05:58.363Z,37.38
2023-03-16T09:07:08.499Z,35.29
2023-03-16T09:07:58.364Z,44.63
2023-03-16T09:08:58.332Z,36.74
2023-03-16T09:09:58.335Z,36.42
2023-03-16T09:10:58.309Z,36.42
2023-03-16T09:11:58.648Z,41.57
2023-03-16T09:12:58.293Z,35.93
2023-03-16T09:13:58.318Z,35.93
2023-03-16T09:14:58.286Z,36.25
2023-03-16T09:15:58.329Z,35.29
2023-03-16T09:16:58.690Z,36.25
2023-03-16T09:17:58.242Z,35.61
2023-03-16T09:18:58.228Z,36.90
2023-03-16T09:20:05.552Z,44.96
2023-03-16T09:20:59.991Z,48.50
2023-03-16T09:21:58.201Z,48.18
2023-03-16T09:22:58.200Z,36.42
2023-03-16T09:23:58.168Z,35.77
2023-03-16T09:24:58.161Z,34.64
2023-03-16T09:25:58.144Z,35.61
2023-03-16T09:26:58.225Z,36.09
2023-03-16T09:27:58.136Z,35.29
2023-03-16T09:28:58.127Z,35.93
2023-03-16T09:29:58.112Z,36.42
2023-03-16T09:30:58.111Z,36.58
2023-03-16T09:31:58.091Z,36.42
2023-03-16T09:32:58.148Z,36.25
2023-03-16T09:33:58.065Z,35.93
2023-03-16T09:34:58.091Z,48.82
2023-03-16T09:35:58.107Z,44.15
2023-03-16T09:36:58.036Z,36.42
2023-03-16T09:38:06.479Z,35.93
2023-03-16T09:38:58.028Z,35.77
2023-03-16T09:40:06.256Z,36.25
2023-03-16T09:40:58.003Z,37.71
2023-03-16T09:41:57.979Z,38.51
2023-03-16T09:42:57.990Z,40.61
2023-03-16T09:43:57.967Z,38.35
2023-03-16T09:44:57.976Z,37.06
2023-03-16T09:45:58.000Z,44.31
2023-03-16T09:46:57.933Z,47.21
2023-03-16T09:47:57.919Z,37.06
2023-03-16T09:48:57.980Z,36.09
2023-03-16T09:49:57.934Z,39.16
2023-03-16T09:50:57.924Z,36.09
2023-03-16T09:51:59.637Z,51.40
2023-03-16T09:52:57.882Z,54.30
2023-03-16T09:53:57.857Z,35.77
2023-03-16T09:54:57.845Z,36.42
2023-03-16T09:55:57.833Z,36.09
2023-03-16T09:56:57.826Z,36.90
2023-03-16T09:57:57.815Z,36.09
2023-03-16T09:58:57.858Z,36.90
2023-03-16T09:59:57.786Z,36.42
2023-03-16T10:00:57.874Z,36.42
2023-03-16T10:01:57.788Z,36.74
2023-03-16T10:02:57.773Z,37.06
2023-03-16T10:03:57.774Z,47.37
2023-03-16T10:04:57.747Z,36.42
2023-03-16T10:05:57.729Z,35.93
2023-03-16T10:06:57.728Z,35.61
2023-03-16T10:07:57.728Z,36.90
2023-03-16T10:08:57.703Z,36.42
2023-03-16T10:09:57.694Z,36.74
2023-03-16T10:10:57.686Z,40.44
2023-03-16T10:11:57.668Z,37.06
2023-03-16T10:12:59.136Z,37.22
2023-03-16T10:13:57.640Z,36.09
2023-03-16T10:14:57.814Z,37.54
2023-03-16T10:15:57.617Z,38.03
2023-03-16T10:16:57.699Z,36.09
2023-03-16T10:17:58.256Z,35.61
2023-03-16T10:18:57.600Z,51.56
2023-03-16T10:19:57.587Z,39.32
2023-03-16T10:20:57.569Z,35.61
2023-03-16T10:21:57.561Z,38.99
2023-03-16T10:22:57.970Z,36.42
2023-03-16T10:23:57.546Z,41.09
2023-03-16T10:24:57.534Z,36.42
2023-03-16T10:25:57.513Z,38.67
2023-03-16T10:26:57.519Z,38.51
2023-03-16T10:27:57.859Z,42.22
2023-03-16T10:28:57.492Z,35.93
2023-03-16T10:29:57.482Z,38.99
2023-03-16T10:30:57.474Z,35.93
2023-03-16T10:31:57.514Z,36.74
2023-03-16T10:32:58.218Z,35.77
2023-03-16T10:33:57.434Z,36.09
2023-03-16T10:34:57.427Z,35.93
2023-03-16T10:35:57.409Z,36.09
2023-03-16T10:36:57.406Z,35.93
2023-03-16T10:37:57.704Z,35.45
2023-03-16T10:38:57.391Z,36.90
2023-03-16T10:39:57.431Z,37.38
2023-03-16T10:40:57.366Z,40.61
2023-03-16T10:41:57.373Z,35.77
2023-03-16T10:42:57.685Z,45.12
2023-03-16T10:43:57.477Z,34.97
2023-03-16T10:44:57.326Z,41.57
2023-03-16T10:45:57.353Z,48.18
2023-03-16T10:46:57.356Z,40.93
2023-03-16T10:47:57.646Z,53.33
2023-03-16T10:48:57.278Z,35.29
2023-03-16T10:49:57.270Z,35.45
2023-03-16T10:50:57.307Z,41.89
2023-03-16T10:51:57.246Z,36.42
2023-03-16T10:52:58.324Z,35.45
2023-03-16T10:53:57.229Z,37.54
2023-03-16T10:54:57.220Z,35.93
2023-03-16T10:55:57.209Z,34.80
2023-03-16T10:56:57.204Z,34.48
2023-03-16T10:57:57.426Z,34.97
2023-03-16T10:58:57.178Z,52.21
2023-03-16T10:59:57.165Z,35.45
2023-03-16T11:00:57.193Z,35.45
2023-03-16T11:01:57.215Z,35.45
2023-03-16T11:02:57.446Z,38.51
2023-03-16T11:03:57.208Z,35.61
2023-03-16T11:04:57.184Z,34.48
2023-03-16T11:05:57.103Z,38.03
2023-03-16T11:06:57.109Z,37.22
2023-03-16T11:07:57.104Z,36.09
2023-03-16T11:08:57.091Z,38.03
2023-03-16T11:09:57.061Z,59.30
2023-03-16T11:10:57.055Z,47.21
2023-03-16T11:11:57.039Z,37.87
2023-03-16T11:13:00.352Z,38.19
2023-03-16T11:13:57.034Z,46.41
2023-03-16T11:14:57.016Z,48.02
2023-03-16T11:15:56.997Z,34.64
2023-03-16T11:16:57.020Z,35.45
2023-03-16T11:17:56.979Z,52.53
2023-03-16T11:18:57.006Z,50.76
2023-03-16T11:19:56.957Z,36.09
2023-03-16T11:20:56.949Z,37.87
2023-03-16T11:21:56.951Z,34.97
2023-03-16T11:22:56.964Z,36.09
2023-03-16T11:23:56.927Z,36.25
2023-03-16T11:24:56.908Z,34.97
2023-03-16T11:25:56.899Z,35.13
2023-03-16T11:26:56.891Z,35.13
2023-03-16T11:27:56.878Z,34.97
2023-03-16T11:28:56.877Z,35.45
2023-03-16T11:29:56.852Z,35.61
2023-03-16T11:30:56.930Z,36.25
2023-03-16T11:31:56.833Z,35.45
2023-03-16T11:32:56.894Z,35.45
2023-03-16T11:33:56.849Z,35.13
2023-03-16T11:34:56.813Z,35.77
2023-03-16T11:35:59.546Z,34.97
2023-03-16T11:36:56.812Z,35.93
2023-03-16T11:37:56.772Z,50.27
2023-03-16T11:38:56.842Z,36.74
2023-03-16T11:39:56.756Z,34.97
2023-03-16T11:40:56.747Z,35.13
2023-03-16T11:41:56.742Z,34.97
2023-03-16T11:42:56.745Z,35.13
2023-03-16T11:43:56.712Z,35.13
2023-03-16T11:44:56.715Z,36.09
2023-03-16T11:45:56.762Z,36.90
2023-03-16T11:46:56.691Z,35.29
2023-03-16T11:47:56.677Z,41.73
2023-03-16T11:48:56.722Z,34.80
2023-03-16T11:49:56.647Z,37.38
2023-03-16T11:50:56.647Z,48.18
2023-03-16T11:51:56.679Z,46.41
2023-03-16T11:52:56.640Z,34.97
2023-03-16T11:53:56.613Z,44.79
2023-03-16T11:54:56.596Z,42.54
2023-03-16T11:55:56.587Z,35.13
2023-03-16T11:56:56.582Z,36.25
2023-03-16T11:57:56.587Z,41.57
2023-03-16T11:58:56.559Z,35.13
2023-03-16T12:00:01.567Z,34.97
2023-03-16T12:00:56.532Z,34.80
2023-03-16T12:02:00.741Z,34.97
2023-03-16T12:02:56.685Z,34.97
2023-03-16T12:03:56.526Z,34.80
2023-03-16T12:04:56.494Z,35.77
2023-03-16T12:05:56.494Z,35.93
2023-03-16T12:06:56.473Z,35.45
2023-03-16T12:07:56.457Z,35.93
2023-03-16T12:08:56.445Z,35.45
2023-03-16T12:09:56.433Z,34.80
2023-03-16T12:10:56.425Z,35.29
2023-03-16T12:11:56.414Z,35.93
2023-03-16T12:12:56.409Z,35.13
2023-03-16T12:13:56.395Z,34.97
2023-03-16T12:14:56.382Z,36.25
2023-03-16T12:15:56.397Z,34.97
2023-03-16T12:16:56.423Z,39.80
2023-03-16T12:17:56.357Z,38.51
2023-03-16T12:18:56.648Z,42.06
2023-03-16T12:19:56.323Z,47.05
2023-03-16T12:20:56.330Z,35.93
2023-03-16T12:21:56.307Z,37.38
2023-03-16T12:22:56.313Z,36.74
2023-03-16T12:23:56.317Z,46.73
2023-03-16T12:24:56.308Z,35.93
2023-03-16T12:25:56.276Z,35.45
2023-03-16T12:26:56.258Z,36.25
2023-03-16T12:27:56.244Z,36.42
2023-03-16T12:28:56.577Z,36.90
2023-03-16T12:29:56.241Z,38.67
2023-03-16T12:30:56.212Z,40.61
2023-03-16T12:31:56.258Z,40.77
2023-03-16T12:32:56.246Z,35.77
2023-03-16T12:33:56.508Z,35.61
2023-03-16T12:34:56.184Z,35.93
2023-03-16T12:35:56.204Z,39.64
2023-03-16T12:36:56.267Z,65.26
2023-03-16T12:37:56.140Z,39.48
2023-03-16T12:38:56.203Z,37.54
2023-03-16T12:39:56.129Z,36.90
2023-03-16T12:40:56.120Z,39.64
2023-03-16T12:41:56.100Z,35.45
2023-03-16T12:42:56.105Z,35.93
2023-03-16T12:43:56.904Z,35.13
2023-03-16T12:44:56.076Z,35.61
2023-03-16T12:45:56.140Z,35.45
2023-03-16T12:46:56.067Z,48.66
2023-03-16T12:47:56.034Z,55.27
2023-03-16T12:48:56.392Z,36.25
2023-03-16T12:49:56.024Z,43.67
2023-03-16T12:50:56.017Z,37.38
2023-03-16T12:51:56.001Z,36.42